createdAt,value
2022-10-08T03:02:37.070Z,67.31
2022-10-08T03:05:08.857Z,67.02
2022-10-08T03:07:35.341Z,66.95
2022-10-08T03:10:06.629Z,67.04
2022-10-08T03:12:34.680Z,67.30
2022-10-08T03:15:01.433Z,68.06
2022-10-08T03:17:44.805Z,68.10
2022-10-08T03:20:12.275Z,67.59
2022-10-08T03:22:38.883Z,68.00
2022-10-08T03:25:05.987Z,67.82
2022-10-08T03:27:32.465Z,67.72
2022-10-08T03:29:58.870Z,67.63
2022-10-08T03:32:26.317Z,67.70
2022-10-08T03:34:53.522Z,67.80
2022-10-08T03:37:20.854Z,67.90
2022-10-08T03:39:47.448Z,67.74
2022-10-08T03:42:13.995Z,67.58
2022-10-08T03:44:40.422Z,67.29
2022-10-08T03:47:06.840Z,67.58
2022-10-08T03:49:34.685Z,67.56
2022-10-08T03:52:01.182Z,68.29
2022-10-08T03:54:27.631Z,68.71
2022-10-08T03:56:54.028Z,68.49
2022-10-08T03:59:20.479Z,68.12
2022-10-08T04:01:46.977Z,68.11
2022-10-08T04:04:13.585Z,67.45
2022-10-08T04:06:40.027Z,67.70
2022-10-08T04:09:06.560Z,67.37
2022-10-08T04:11:33.010Z,67.41
2022-10-08T04:14:00.299Z,67.83
2022-10-08T04:16:26.813Z,67.68
2022-10-08T04:18:53.257Z,67.95
2022-10-08T04:21:20.280Z,68.27
2022-10-08T04:23:49.557Z,68.38
2022-10-08T04:26:16.416Z,68.57
2022-10-08T04:28:44.437Z,68.03
2022-10-08T04:31:19.259Z,67.73
2022-10-08T04:33:46.595Z,67.68
2022-10-08T04:36:22.335Z,67.56
2022-10-08T04:38:49.108Z,67.63
2022-10-08T04:41:28.315Z,67.05
2022-10-08T04:43:58.645Z,66.71
2022-10-08T04:46:25.139Z,66.29
2022-10-08T04:48:54.065Z,66.18
2022-10-08T04:51:23.265Z,66.37
2022-10-08T04:53:50.369Z,66.36
2022-10-08T04:56:23.625Z,66.29
2022-10-08T04:58:50.586Z,66.92
2022-10-08T05:01:19.474Z,66.98
2022-10-08T05:03:48.752Z,67.04
2022-10-08T05:06:16.863Z,67.18
2022-10-08T05:08:44.653Z,66.58
2022-10-08T05:11:11.624Z,67.61
2022-10-08T05:13:38.151Z,67.41
2022-10-08T05:16:10.285Z,67.09
2022-10-08T05:18:38.071Z,67.29
2022-10-08T05:21:06.641Z,67.43
2022-10-08T05:23:33.890Z,67.81
2022-10-08T05:26:02.345Z,68.11
2022-10-08T05:28:29.876Z,68.27
2022-10-08T05:31:00.998Z,67.57
2022-10-08T05:33:27.492Z,67.70
2022-10-08T05:35:54.070Z,66.94
2022-10-08T05:38:20.662Z,66.62
2022-10-08T05:40:47.233Z,66.68
2022-10-08T05:43:13.897Z,67.04
2022-10-08T05:45:40.316Z,67.06
2022-10-08T05:48:06.778Z,66.92
2022-10-08T05:50:36.422Z,67.11
2022-10-08T05:53:05.380Z,66.81
2022-10-08T05:55:35.150Z,67.05
2022-10-08T05:58:01.639Z,67.35
2022-10-08T06:00:28.241Z,66.70
2022-10-08T06:02:54.711Z,66.93
2022-10-08T06:05:21.975Z,66.62
2022-10-08T06:07:48.541Z,66.87
2022-10-08T06:10:15.041Z,66.56
2022-10-08T06:12:41.455Z,67.04
2022-10-08T06:15:08.133Z,66.96
2022-10-08T06:17:34.650Z,66.84
2022-10-08T06:20:01.118Z,66.25
2022-10-08T06:22:27.509Z,66.53
2022-10-08T06:24:54.110Z,66.49
2022-10-08T06:27:20.540Z,66.55
2022-10-08T06:29:46.951Z,66.90
2022-10-08T06:32:13.411Z,67.32
2022-10-08T06:34:41.964Z,66.83
2022-10-08T06:37:08.471Z,66.49
2022-10-08T06:39:34.950Z,67.38
2022-10-08T06:42:01.495Z,66.98
2022-10-08T06:44:27.928Z,67.20
2022-10-08T06:46:54.423Z,66.91
2022-10-08T06:49:22.142Z,66.97
2022-10-08T06:51:48.604Z,66.62
2022-10-08T06:54:15.427Z,66.53
2022-10-08T06:56:41.887Z,67.04
2022-10-08T06:59:08.470Z,66.48
2022-10-08T07:01:36.074Z,64.96
2022-10-08T07:04:04.347Z,63.47
2022-10-08T07:06:31.343Z,62.57
2022-10-08T07:09:00.158Z,63.31
2022-10-08T07:11:27.421Z,62.77
2022-10-08T07:13:55.141Z,60.58
2022-10-08T07:16:24.212Z,61.27
2022-10-08T07:18:52.561Z,62.35
2022-10-08T07:21:20.715Z,63.08
2022-10-08T07:23:47.278Z,63.21
2022-10-08T07:26:16.198Z,60.13
2022-10-08T07:29:04.563Z,57.84
2022-10-08T07:31:33.822Z,55.62
2022-10-08T07:34:01.855Z,53.86
2022-10-08T07:36:29.278Z,52.31
2022-10-08T07:38:57.935Z,50.82
2022-10-08T07:41:25.045Z,48.78
2022-10-08T07:43:53.117Z,48.73
2022-10-08T07:46:20.258Z,47.39
2022-10-08T07:48:46.948Z,45.98
2022-10-08T07:51:19.451Z,45.63
2022-10-08T07:53:46.582Z,45.61
2022-10-08T07:56:15.735Z,44.79
2022-10-08T07:58:42.265Z,43.38
2022-10-08T08:01:14.023Z,42.63
2022-10-08T08:03:40.625Z,42.38
2022-10-08T08:06:10.884Z,41.77
2022-10-08T08:08:39.260Z,41.03
2022-10-08T08:11:07.493Z,41.05
2022-10-08T08:13:37.454Z,40.79
2022-10-08T08:16:07.304Z,39.96
2022-10-08T08:18:36.682Z,39.18
2022-10-08T08:21:09.839Z,38.91
2022-10-08T08:23:39.645Z,38.96
2022-10-08T08:26:10.071Z,39.72
2022-10-08T08:28:37.019Z,38.10
2022-10-08T08:31:17.939Z,38.32
2022-10-08T08:33:50.832Z,37.56
2022-10-08T08:36:19.068Z,38.44
2022-10-08T08:38:46.445Z,37.52
2022-10-08T08:41:22.143Z,36.85
2022-10-08T08:43:48.925Z,37.89
2022-10-08T08:46:20.991Z,38.40
2022-10-08T08:48:48.206Z,37.84
2022-10-08T08:51:16.446Z,37.58
2022-10-08T08:53:43.130Z,38.58
2022-10-08T08:56:15.799Z,39.65
2022-10-08T08:58:49.816Z,39.65
2022-10-08T09:01:19.588Z,39.91
2022-10-08T09:03:51.007Z,39.29
2022-10-08T09:06:22.689Z,38.75
2022-10-08T09:09:04.232Z,39.10
2022-10-08T09:11:30.794Z,40.29
2022-10-08T09:14:27.029Z,39.11
2022-10-08T09:16:56.057Z,37.55
2022-10-08T09:19:22.733Z,38.09
2022-10-08T09:21:49.191Z,38.82
2022-10-08T09:24:16.744Z,39.47
2022-10-08T09:26:43.479Z,39.77
2022-10-08T09:29:31.277Z,41.30
2022-10-08T09:31:57.889Z,43.15
2022-10-08T09:34:24.451Z,43.87
2022-10-08T09:37:03.422Z,43.40
2022-10-08T09:39:32.711Z,42.48
2022-10-08T09:42:19.481Z,43.88
2022-10-08T09:44:59.047Z,43.12
2022-10-08T09:47:27.088Z,43.35
2022-10-08T09:50:15.883Z,43.53
2022-10-08T09:52:43.031Z,44.08
2022-10-08T09:55:31.404Z,44.10
2022-10-08T09:58:04.050Z,45.48
2022-10-08T10:00:35.517Z,45.95
2022-10-08T10:03:04.917Z,46.32
2022-10-08T10:05:36.025Z,45.86
2022-10-08T10:08:02.910Z,45.95
2022-10-08T10:10:34.556Z,45.19
2022-10-08T10:13:19.399Z,44.20
2022-10-08T10:16:14.371Z,45.42
2022-10-08T10:18:55.930Z,44.88
2022-10-08T10:21:40.425Z,46.43
2022-10-08T10:24:15.427Z,47.29
2022-10-08T10:26:44.171Z,46.27
2022-10-08T10:29:17.993Z,47.70
2022-10-08T10:31:50.928Z,47.22
2022-10-08T10:34:30.568Z,45.98
2022-10-08T10:37:01.990Z,45.50
2022-10-08T10:39:33.752Z,47.11
2022-10-08T10:42:21.295Z,47.42
2022-10-08T10:44:56.177Z,48.23
2022-10-08T10:47:29.617Z,49.08
2022-10-08T10:50:00.302Z,48.59
2022-10-08T10:52:39.558Z,48.97
2022-10-08T10:55:27.936Z,49.55
2022-10-08T10:58:00.523Z,49.65
2022-10-08T11:00:48.025Z,50.20
2022-10-08T11:03:38.442Z,50.18
2022-10-08T11:06:26.245Z,49.47
2022-10-08T11:09:19.235Z,49.01
2022-10-08T11:11:52.381Z,49.73
2022-10-08T11:14:42.590Z,49.80
2022-10-08T11:17:31.948Z,49.95
2022-10-08T11:20:11.112Z,50.21
2022-10-08T11:23:00.465Z,50.85
2022-10-08T11:29:00.171Z,51.49
2022-10-08T11:31:45.266Z,52.51
2022-10-08T11:34:29.390Z,53.32
2022-10-08T11:37:13.811Z,55.05
2022-10-08T11:40:03.308Z,56.41
2022-10-08T11:42:45.025Z,58.29
2022-10-08T11:45:24.032Z,59.46
2022-10-08T11:47:54.390Z,59.85
2022-10-08T11:50:28.673Z,60.99
2022-10-08T11:53:09.707Z,60.11
2022-10-08T11:55:37.738Z,61.26
2022-10-08T11:58:08.814Z,60.53
2022-10-08T12:00:46.614Z,60.59
2022-10-08T12:03:33.920Z,60.30
2022-10-08T12:06:25.252Z,59.30
2022-10-08T12:08:54.673Z,58.33
2022-10-08T12:11:30.019Z,57.74
2022-10-08T12:14:11.803Z,57.49
2022-10-08T12:16:47.352Z,57.01
2022-10-08T12:19:32.469Z,56.77
2022-10-08T12:22:02.342Z,55.88
2022-10-08T12:24:38.194Z,54.45
2022-10-08T12:27:16.865Z,53.86
2022-10-08T12:29:56.883Z,51.26
2022-10-08T12:32:29.351Z,50.48
2022-10-08T12:34:56.514Z,49.34
2022-10-08T12:37:31.980Z,50.44
2022-10-08T12:40:09.353Z,51.42
2022-10-08T12:42:38.368Z,52.05
2022-10-08T12:45:17.633Z,50.26
2022-10-08T12:48:19.404Z,49.88
2022-10-08T12:51:03.390Z,49.56
2022-10-08T12:53:30.279Z,49.45
2022-10-08T12:55:58.431Z,50.14
2022-10-08T12:58:29.115Z,49.80
2022-10-08T13:00:59.768Z,51.08
2022-10-08T13:03:26.356Z,51.14
2022-10-08T13:05:55.229Z,51.41
2022-10-08T13:08:29.562Z,51.76
2022-10-08T13:10:57.986Z,51.67
2022-10-08T13:13:44.844Z,51.18
2022-10-08T13:16:15.549Z,51.52
2022-10-08T13:18:45.664Z,51.91
2022-10-08T13:21:24.013Z,52.68
2022-10-08T13:23:51.308Z,52.13
2022-10-08T13:26:37.735Z,52.20
2022-10-08T13:29:22.327Z,50.69
2022-10-08T13:31:56.178Z,50.92
2022-10-08T13:34:24.822Z,49.89
2022-10-08T13:36:57.349Z,49.29
2022-10-08T13:39:49.616Z,49.58
2022-10-08T13:42:18.572Z,49.06
2022-10-08T13:44:45.621Z,48.92
2022-10-08T13:47:18.050Z,48.59
2022-10-08T13:49:44.788Z,48.21
2022-10-08T13:52:21.471Z,47.80
2022-10-08T13:54:49.650Z,47.42
2022-10-08T13:57:16.187Z,47.42
2022-10-08T13:59:42.966Z,46.99
2022-10-08T14:02:13.943Z,47.88
2022-10-08T14:04:40.505Z,47.89
2022-10-08T14:07:20.085Z,47.80
2022-10-08T14:09:46.554Z,46.96
2022-10-08T14:12:12.979Z,47.00
2022-10-08T14:14:39.430Z,47.04
2022-10-08T14:17:06.035Z,47.47
2022-10-08T14:19:32.469Z,47.77
2022-10-08T14:21:59.427Z,47.19
2022-10-08T14:24:25.953Z,47.43
2022-10-08T14:26:52.738Z,47.56
2022-10-08T14:29:19.182Z,47.95
2022-10-08T14:31:45.738Z,48.10
2022-10-08T14:34:12.308Z,48.12
2022-10-08T14:36:41.755Z,47.14
2022-10-08T14:39:09.854Z,47.01
2022-10-08T14:41:36.704Z,50.32
2022-10-08T14:44:03.191Z,48.54
2022-10-08T14:46:29.644Z,49.74
2022-10-08T14:48:56.198Z,48.42
2022-10-08T14:51:22.671Z,48.76
2022-10-08T14:53:50.222Z,49.26
2022-10-08T14:56:16.778Z,50.21
2022-10-08T14:58:43.268Z,50.26
2022-10-08T15:01:10.200Z,50.03
2022-10-08T15:03:36.756Z,50.73
2022-10-08T15:06:03.368Z,50.98
2022-10-08T15:08:29.960Z,50.55
2022-10-08T15:10:56.397Z,50.26
2022-10-08T15:13:22.967Z,50.53
2022-10-08T15:15:49.388Z,50.62
2022-10-08T15:18:15.870Z,50.73
2022-10-08T15:20:43.043Z,52.14
2022-10-08T15:23:10.450Z,51.68
2022-10-08T15:25:37.411Z,51.66
2022-10-08T15:28:04.281Z,51.57
2022-10-08T15:30:30.909Z,51.73
2022-10-08T15:33:03.004Z,51.91
2022-10-08T15:35:33.364Z,52.10
2022-10-08T15:37:59.899Z,52.38
2022-10-08T15:40:28.623Z,51.97
2022-10-08T15:42:55.054Z,51.82
2022-10-08T15:45:21.628Z,51.96
2022-10-08T15:47:51.070Z,52.80
2022-10-08T15:50:17.540Z,52.82
2022-10-08T15:52:46.351Z,53.03
2022-10-08T15:55:13.255Z,53.58
2022-10-08T15:57:39.779Z,53.93
2022-10-08T16:00:06.829Z,53.89
2022-10-08T16:02:33.401Z,54.50
2022-10-08T16:04:59.979Z,55.07
2022-10-08T16:07:26.395Z,54.87
2022-10-08T16:09:52.855Z,55.34
2022-10-08T16:12:19.288Z,55.61
2022-10-08T16:14:45.712Z,55.49
2022-10-08T16:17:12.170Z,55.66
2022-10-08T16:19:38.689Z,56.13
2022-10-08T16:22:05.517Z,55.79
2022-10-08T16:24:32.027Z,55.87
2022-10-08T16:26:58.479Z,56.47
2022-10-08T16:29:24.906Z,56.42
2022-10-08T16:31:51.473Z,56.38
2022-10-08T16:34:20.675Z,56.76
2022-10-08T16:36:51.146Z,56.34
2022-10-08T16:39:20.791Z,57.14
2022-10-08T16:41:48.157Z,57.50
2022-10-08T16:44:16.851Z,57.24
2022-10-08T16:46:48.341Z,57.72
2022-10-08T16:49:25.027Z,57.46
2022-10-08T16:51:58.722Z,57.44
2022-10-08T16:54:25.740Z,56.97
2022-10-08T16:56:52.160Z,57.66
2022-10-08T16:59:21.383Z,57.32
2022-10-08T17:01:50.643Z,57.14
2022-10-08T17:04:18.239Z,57.32
2022-10-08T17:06:44.849Z,57.69
2022-10-08T17:09:14.527Z,57.67
2022-10-08T17:11:41.907Z,57.15
2022-10-08T17:14:10.270Z,57.30
2022-10-08T17:16:37.326Z,57.87
2022-10-08T17:19:04.314Z,57.26
2022-10-08T17:21:33.030Z,57.63
2022-10-08T17:24:01.740Z,57.38
2022-10-08T17:26:29.559Z,58.42
2022-10-08T17:28:56.055Z,57.80
2022-10-08T17:31:29.299Z,58.47
2022-10-08T17:33:55.809Z,58.31
2022-10-08T17:36:25.317Z,58.58
2022-10-08T17:38:53.377Z,59.22
2022-10-08T17:41:25.108Z,59.35
2022-10-08T17:43:52.965Z,59.01
2022-10-08T17:46:23.495Z,58.80
2022-10-08T17:48:50.791Z,58.78
2022-10-08T17:51:20.215Z,58.89
2022-10-08T17:54:01.606Z,59.07
2022-10-08T17:56:28.848Z,59.16
2022-10-08T17:58:56.144Z,59.00
2022-10-08T18:01:31.959Z,59.39
2022-10-08T18:04:01.204Z,59.26
2022-10-08T18:06:29.052Z,59.21
2022-10-08T18:08:57.093Z,59.39
2022-10-08T18:11:24.368Z,59.42
2022-10-08T18:13:51.122Z,59.37
2022-10-08T18:16:19.077Z,59.95
2022-10-08T18:18:46.858Z,60.24
2022-10-08T18:21:16.566Z,60.12
2022-10-08T18:23:43.566Z,60.50
2022-10-08T18:26:34.828Z,60.32
2022-10-08T18:29:04.440Z,60.78
2022-10-08T18:31:32.972Z,60.56
2022-10-08T18:34:08.647Z,60.62
2022-10-08T18:36:37.159Z,60.87
2022-10-08T18:39:06.978Z,60.97
2022-10-08T18:41:38.030Z,61.26
2022-10-08T18:44:06.310Z,61.58
2022-10-08T18:46:36.857Z,61.26
2022-10-08T18:49:04.721Z,61.67
2022-10-08T18:51:31.725Z,61.46
2022-10-08T18:53:59.289Z,61.56
2022-10-08T18:56:31.220Z,61.46
2022-10-08T18:59:03.858Z,61.74
2022-10-08T19:01:41.174Z,62.00
2022-10-08T19:04:11.883Z,62.04
2022-10-08T19:06:39.931Z,61.56
2022-10-08T19:09:07.053Z,61.94
2022-10-08T19:11:44.644Z,62.24
2022-10-08T19:14:13.639Z,62.26
2022-10-08T19:16:41.252Z,62.13
2022-10-08T19:19:14.685Z,61.95
2022-10-08T19:21:41.849Z,62.26
2022-10-08T19:24:12.382Z,62.29
2022-10-08T19:26:38.792Z,62.50
2022-10-08T19:29:05.327Z,62.36
2022-10-08T19:31:34.021Z,62.42
2022-10-08T19:34:05.908Z,62.68
2022-10-08T19:36:37.504Z,62.74
2022-10-08T19:39:06.217Z,62.67
2022-10-08T19:41:32.918Z,62.75
2022-10-08T19:43:59.653Z,63.00
2022-10-08T19:46:27.334Z,63.16
2022-10-08T19:48:59.691Z,62.99
2022-10-08T19:51:28.126Z,62.65
2022-10-08T19:53:55.450Z,62.43
2022-10-08T19:56:22.535Z,62.62
2022-10-08T19:58:53.051Z,62.50
2022-10-08T20:01:22.021Z,62.80
2022-10-08T20:03:49.236Z,62.95
2022-10-08T20:06:23.241Z,62.75
2022-10-08T20:08:54.155Z,62.61
2022-10-08T20:11:21.173Z,62.62
2022-10-08T20:13:49.189Z,62.34
2022-10-08T20:16:24.250Z,62.52
2022-10-08T20:19:01.421Z,62.51
2022-10-08T20:21:30.266Z,62.38
2022-10-08T20:23:57.215Z,62.70
2022-10-08T20:26:35.354Z,62.13
2022-10-08T20:29:16.975Z,62.16
2022-10-08T20:31:46.621Z,61.91
2022-10-08T20:34:17.595Z,61.95
2022-10-08T20:36:48.276Z,62.06
2022-10-08T20:39:16.799Z,61.59
2022-10-08T20:41:43.614Z,62.22
2022-10-08T20:44:10.336Z,61.89
2022-10-08T20:46:37.657Z,61.92
2022-10-08T20:49:04.965Z,61.88
2022-10-08T20:51:32.853Z,61.99
2022-10-08T20:54:05.428Z,62.16
2022-10-08T20:56:38.443Z,62.00
2022-10-08T20:59:05.426Z,62.21
2022-10-08T21:01:35.465Z,62.07
2022-10-08T21:04:02.305Z,62.07
2022-10-08T21:06:36.146Z,62.02
2022-10-08T21:09:02.746Z,62.26
2022-10-08T21:11:30.263Z,62.85
2022-10-08T21:13:59.475Z,62.59
2022-10-08T21:16:28.301Z,62.64
2022-10-08T21:18:59.901Z,62.57
2022-10-08T21:21:27.709Z,62.66
2022-10-08T21:23:54.139Z,62.68
2022-10-08T21:26:24.001Z,62.88
2022-10-08T21:28:53.209Z,63.05
2022-10-08T21:31:20.905Z,62.88
2022-10-08T21:33:49.250Z,62.94
2022-10-08T21:36:29.451Z,63.11
2022-10-08T21:38:56.570Z,63.51
2022-10-08T21:41:25.005Z,62.90
2022-10-08T21:43:54.145Z,62.97
2022-10-08T21:46:22.866Z,63.16
2022-10-08T21:49:08.182Z,63.58
2022-10-08T21:51:35.396Z,62.92
2022-10-08T21:54:03.563Z,62.75
2022-10-08T21:56:32.183Z,62.71
2022-10-08T21:59:00.467Z,62.78
